sensor_id;sensor_type;location;lat;lon;timestamp;pressure;altitude;pressure_sealevel;temperature;humidity
41044;BME280;51680;49.806;18.774;2023-04-15T00:00:19;96074.94;;;11.03;74.84
41044;BME280;51680;49.806;18.774;2023-04-15T00:03:20;96078.63;;;11.00;75.09
41044;BME280;51680;49.806;18.774;2023-04-15T00:06:22;96079.91;;;11.06;75.17
41044;BME280;51680;49.806;18.774;2023-04-15T00:09:24;96085.97;;;11.06;74.67
41044;BME280;51680;49.806;18.774;2023-04-15T00:12:26;96087.78;;;11.15;74.91
41044;BME280;51680;49.806;18.774;2023-04-15T00:15:30;96092.47;;;11.21;74.84
41044;BME280;51680;49.806;18.774;2023-04-15T00:18:32;96095.50;;;11.26;75.07
41044;BME280;51680;49.806;18.774;2023-04-15T00:21:34;96098.66;;;11.30;74.63
41044;BME280;51680;49.806;18.774;2023-04-15T00:24:35;96095.22;;;11.29;74.33
41044;BME280;51680;49.806;18.774;2023-04-15T00:27:37;96097.69;;;11.31;74.40
41044;BME280;51680;49.806;18.774;2023-04-15T00:30:41;96099.50;;;11.30;73.85
41044;BME280;51680;49.806;18.774;2023-04-15T00:33:43;96106.50;;;11.30;73.81
41044;BME280;51680;49.806;18.774;2023-04-15T00:36:44;96105.16;;;11.35;73.82
41044;BME280;51680;49.806;18.774;2023-04-15T00:39:46;96104.88;;;11.38;73.41
41044;BME280;51680;49.806;18.774;2023-04-15T00:42:48;96113.41;;;11.40;73.17
41044;BME280;51680;49.806;18.774;2023-04-15T00:45:52;96108.88;;;11.42;73.13
41044;BME280;51680;49.806;18.774;2023-04-15T00:48:55;96109.84;;;11.41;73.72
41044;BME280;51680;49.806;18.774;2023-04-15T00:51:57;96111.47;;;11.42;73.06
41044;BME280;51680;49.806;18.774;2023-04-15T00:55:17;96115.19;;;11.40;73.22
41044;BME280;51680;49.806;18.774;2023-04-15T00:58:19;96111.22;;;11.45;73.61
41044;BME280;51680;49.806;18.774;2023-04-15T01:01:24;96116.44;;;11.45;73.17
41044;BME280;51680;49.806;18.774;2023-04-15T01:04:26;96123.31;;;11.46;73.11
41044;BME280;51680;49.806;18.774;2023-04-15T01:07:35;96120.56;;;11.48;73.10
41044;BME280;51680;49.806;18.774;2023-04-15T01:10:37;96127.44;;;11.49;72.70
41044;BME280;51680;49.806;18.774;2023-04-15T01:13:40;96133.78;;;11.46;72.14
41044;BME280;51680;49.806;18.774;2023-04-15T01:16:43;96132.38;;;11.42;71.81
41044;BME280;51680;49.806;18.774;2023-04-15T01:19:46;96125.09;;;11.36;71.69
41044;BME280;51680;49.806;18.774;2023-04-15T01:22:48;96135.78;;;11.33;71.73
41044;BME280;51680;49.806;18.774;2023-04-15T01:25:52;96133.47;;;11.30;71.27
41044;BME280;51680;49.806;18.774;2023-04-15T01:28:54;96132.88;;;11.17;71.12
41044;BME280;51680;49.806;18.774;2023-04-15T01:31:55;96126.81;;;11.17;70.50
41044;BME280;51680;49.806;18.774;2023-04-15T01:35:00;96128.72;;;11.15;70.03
41044;BME280;51680;49.806;18.774;2023-04-15T01:38:04;96128.97;;;11.12;69.85
41044;BME280;51680;49.806;18.774;2023-04-15T01:41:08;96132.00;;;11.07;70.18
41044;BME280;51680;49.806;18.774;2023-04-15T01:44:10;96133.63;;;10.99;69.62
41044;BME280;51680;49.806;18.774;2023-04-15T01:47:13;96137.41;;;10.85;69.60
41044;BME280;51680;49.806;18.774;2023-04-15T01:50:15;96142.91;;;10.82;69.47
41044;BME280;51680;49.806;18.774;2023-04-15T01:53:17;96141.56;;;10.67;68.98
41044;BME280;51680;49.806;18.774;2023-04-15T01:56:22;96144.69;;;10.61;69.26
41044;BME280;51680;49.806;18.774;2023-04-15T01:59:24;96161.19;;;10.41;67.79
41044;BME280;51680;49.806;18.774;2023-04-15T02:02:28;96168.81;;;10.54;70.05
41044;BME280;51680;49.806;18.774;2023-04-15T02:05:30;96174.47;;;10.59;69.32
41044;BME280;51680;49.806;18.774;2023-04-15T02:08:32;96188.25;;;10.61;69.37
41044;BME280;51680;49.806;18.774;2023-04-15T02:11:35;96184.03;;;10.69;69.76
41044;BME280;51680;49.806;18.774;2023-04-15T02:14:38;96175.22;;;10.70;69.10
41044;BME280;51680;49.806;18.774;2023-04-15T02:17:40;96187.59;;;10.68;69.54
41044;BME280;51680;49.806;18.774;2023-04-15T02:20:45;96188.25;;;10.61;69.75
41044;BME280;51680;49.806;18.774;2023-04-15T02:23:47;96189.00;;;10.52;69.34
41044;BME280;51680;49.806;18.774;2023-04-15T02:26:50;96195.94;;;10.42;69.33
41044;BME280;51680;49.806;18.774;2023-04-15T02:29:52;96210.81;;;10.19;69.27
41044;BME280;51680;49.806;18.774;2023-04-15T02:32:54;96207.06;;;10.12;69.83
41044;BME280;51680;49.806;18.774;2023-04-15T02:35:58;96203.91;;;10.09;70.08
41044;BME280;51680;49.806;18.774;2023-04-15T02:39:01;96196.66;;;10.12;69.82
41044;BME280;51680;49.806;18.774;2023-04-15T02:42:05;96199.38;;;10.00;70.33
41044;BME280;51680;49.806;18.774;2023-04-15T02:45:07;96197.47;;;10.02;70.35
41044;BME280;51680;49.806;18.774;2023-04-15T02:48:09;96212.31;;;10.01;70.46
41044;BME280;51680;49.806;18.774;2023-04-15T02:51:12;96213.75;;;10.05;70.41
41044;BME280;51680;49.806;18.774;2023-04-15T02:54:15;96210.38;;;10.03;70.45
41044;BME280;51680;49.806;18.774;2023-04-15T02:57:18;96215.38;;;9.95;70.28
41044;BME280;51680;49.806;18.774;2023-04-15T03:00:19;96205.03;;;9.73;70.62
41044;BME280;51680;49.806;18.774;2023-04-15T03:03:22;96212.16;;;9.60;70.58
41044;BME280;51680;49.806;18.774;2023-04-15T03:06:24;96209.56;;;9.49;70.89
41044;BME280;51680;49.806;18.774;2023-04-15T03:09:26;96207.72;;;9.29;71.29
41044;BME280;51680;49.806;18.774;2023-04-15T03:12:30;96214.09;;;9.25;71.18
41044;BME280;51680;49.806;18.774;2023-04-15T03:15:32;96218.81;;;9.09;71.99
41044;BME280;51680;49.806;18.774;2023-04-15T03:18:35;96215.25;;;8.99;72.26
41044;BME280;51680;49.806;18.774;2023-04-15T03:21:37;96221.03;;;8.92;73.00
41044;BME280;51680;49.806;18.774;2023-04-15T03:24:38;96220.19;;;8.80;73.54
41044;BME280;51680;49.806;18.774;2023-04-15T03:27:42;96219.97;;;8.83;73.68
41044;BME280;51680;49.806;18.774;2023-04-15T03:30:45;96205.91;;;8.97;73.45
41044;BME280;51680;49.806;18.774;2023-04-15T03:33:47;96210.06;;;8.99;73.21
41044;BME280;51680;49.806;18.774;2023-04-15T03:36:49;96213.59;;;9.09;72.97
41044;BME280;51680;49.806;18.774;2023-04-15T03:39:50;96224.84;;;8.99;73.27
41044;BME280;51680;49.806;18.774;2023-04-15T03:42:54;96233.47;;;8.77;74.61
41044;BME280;51680;49.806;18.774;2023-04-15T03:45:56;96233.69;;;8.74;74.74
41044;BME280;51680;49.806;18.774;2023-04-15T03:48:57;96233.34;;;8.79;74.48
41044;BME280;51680;49.806;18.774;2023-04-15T03:51:59;96234.03;;;8.70;74.54
41044;BME280;51680;49.806;18.774;2023-04-15T03:55:01;96239.13;;;8.71;74.18
41044;BME280;51680;49.806;18.774;2023-04-15T03:58:04;96246.47;;;8.77;74.02
41044;BME280;51680;49.806;18.774;2023-04-15T04:01:06;96253.44;;;8.77;74.06
41044;BME280;51680;49.806;18.774;2023-04-15T04:04:26;96254.94;;;8.57;74.70
41044;BME280;51680;49.806;18.774;2023-04-15T04:07:28;96257.09;;;8.40;75.64
41044;BME280;51680;49.806;18.774;2023-04-15T04:10:30;96250.50;;;8.36;75.81
41044;BME280;51680;49.806;18.774;2023-04-15T04:13:33;96253.09;;;8.36;75.47
41044;BME280;51680;49.806;18.774;2023-04-15T04:16:35;96246.09;;;8.36;75.18
41044;BME280;51680;49.806;18.774;2023-04-15T04:19:37;96235.88;;;8.46;74.77
41044;BME280;51680;49.806;18.774;2023-04-15T04:22:39;96240.50;;;8.53;74.59
41044;BME280;51680;49.806;18.774;2023-04-15T04:25:41;96238.75;;;8.65;74.26
41044;BME280;51680;49.806;18.774;2023-04-15T04:28:44;96240.50;;;8.64;74.02
41044;BME280;51680;49.806;18.774;2023-04-15T04:31:46;96255.66;;;8.70;74.04
41044;BME280;51680;49.806;18.774;2023-04-15T04:34:48;96247.91;;;8.92;73.30
41044;BME280;51680;49.806;18.774;2023-04-15T04:37:49;96248.50;;;9.07;72.75
41044;BME280;51680;49.806;18.774;2023-04-15T04:40:51;96249.38;;;9.29;72.30
41044;BME280;51680;49.806;18.774;2023-04-15T04:43:54;96252.31;;;9.25;72.33
41044;BME280;51680;49.806;18.774;2023-04-15T04:46:56;96254.09;;;9.24;72.64
41044;BME280;51680;49.806;18.774;2023-04-15T04:49:58;96254.22;;;9.23;72.65
41044;BME280;51680;49.806;18.774;2023-04-15T04:53:00;96260.13;;;9.25;72.90
41044;BME280;51680;49.806;18.774;2023-04-15T04:56:02;96251.94;;;9.18;72.54
41044;BME280;51680;49.806;18.774;2023-04-15T04:59:05;96260.59;;;9.08;72.85
41044;BME280;51680;49.806;18.774;2023-04-15T05:02:07;96268.72;;;9.03;73.04
41044;BME280;51680;49.806;18.774;2023-04-15T05:05:09;96273.47;;;9.09;72.75
41044;BME280;51680;49.806;18.774;2023-04-15T05:08:11;96265.56;;;9.11;72.32
41044;BME280;51680;49.806;18.774;2023-04-15T05:11:13;96268.63;;;9.16;72.19
41044;BME280;51680;49.806;18.774;2023-04-15T05:14:16;96271.38;;;9.58;71.31
41044;BME280;51680;49.806;18.774;2023-04-15T05:17:18;96273.41;;;10.30;69.22
41044;BME280;51680;49.806;18.774;2023-04-15T05:20:19;96271.44;;;10.75;67.23
41044;BME280;51680;49.806;18.774;2023-04-15T05:23:21;96272.66;;;10.91;66.57
41044;BME280;51680;49.806;18.774;2023-04-15T05:26:23;96266.53;;;11.32;66.38
41044;BME280;51680;49.806;18.774;2023-04-15T05:29:26;96274.88;;;11.46;65.08
41044;BME280;51680;49.806;18.774;2023-04-15T05:32:28;96274.00;;;11.36;65.06
41044;BME280;51680;49.806;18.774;2023-04-15T05:35:29;96269.66;;;11.56;64.82
41044;BME280;51680;49.806;18.774;2023-04-15T05:38:31;96272.31;;;11.86;64.04
41044;BME280;51680;49.806;18.774;2023-04-15T05:41:33;96273.25;;;12.53;63.04
41044;BME280;51680;49.806;18.774;2023-04-15T05:44:36;96264.38;;;13.30;61.79
41044;BME280;51680;49.806;18.774;2023-04-15T05:47:38;96260.00;;;14.11;59.45
41044;BME280;51680;49.806;18.774;2023-04-15T05:50:40;96264.09;;;15.11;57.00
41044;BME280;51680;49.806;18.774;2023-04-15T05:53:42;96263.84;;;16.06;55.38
41044;BME280;51680;49.806;18.774;2023-04-15T05:56:45;96259.59;;;16.95;52.67
41044;BME280;51680;49.806;18.774;2023-04-15T05:59:48;96257.09;;;17.57;49.69
41044;BME280;51680;49.806;18.774;2023-04-15T06:02:51;96272.94;;;17.57;48.75
41044;BME280;51680;49.806;18.774;2023-04-15T06:05:53;96266.53;;;18.06;48.37
41044;BME280;51680;49.806;18.774;2023-04-15T06:08:55;96271.97;;;17.97;48.50
41044;BME280;51680;49.806;18.774;2023-04-15T06:11:57;96275.78;;;18.02;46.55
41044;BME280;51680;49.806;18.774;2023-04-15T06:15:02;96268.00;;;16.98;43.46
41044;BME280;51680;49.806;18.774;2023-04-15T06:18:04;96281.25;;;15.99;48.90
41044;BME280;51680;49.806;18.774;2023-04-15T06:21:06;96290.59;;;16.27;50.66
41044;BME280;51680;49.806;18.774;2023-04-15T06:24:07;96289.25;;;16.23;48.63
41044;BME280;51680;49.806;18.774;2023-04-15T06:27:09;96294.03;;;15.86;50.06
41044;BME280;51680;49.806;18.774;2023-04-15T06:30:12;96293.59;;;16.40;48.17
41044;BME280;51680;49.806;18.774;2023-04-15T06:33:14;96296.50;;;16.29;47.28
41044;BME280;51680;49.806;18.774;2023-04-15T06:36:16;96294.78;;;16.46;47.66
41044;BME280;51680;49.806;18.774;2023-04-15T06:39:18;96289.44;;;16.95;49.37
41044;BME280;51680;49.806;18.774;2023-04-15T06:42:38;96286.00;;;18.05;47.83
41044;BME280;51680;49.806;18.774;2023-04-15T06:45:41;96289.66;;;17.96;45.72
41044;BME280;51680;49.806;18.774;2023-04-15T06:48:43;96294.19;;;18.18;48.02
41044;BME280;51680;49.806;18.774;2023-04-15T06:51:44;96289.31;;;18.99;47.27
41044;BME280;51680;49.806;18.774;2023-04-15T06:54:46;96293.75;;;19.81;45.75
41044;BME280;51680;49.806;18.774;2023-04-15T06:57:48;96290.63;;;19.63;44.06
41044;BME280;51680;49.806;18.774;2023-04-15T07:00:51;96290.91;;;19.31;44.50
41044;BME280;51680;49.806;18.774;2023-04-15T07:03:53;96284.00;;;20.10;44.40
41044;BME280;51680;49.806;18.774;2023-04-15T07:06:55;96288.22;;;21.05;43.53
41044;BME280;51680;49.806;18.774;2023-04-15T07:09:56;96292.22;;;20.30;41.56
41044;BME280;51680;49.806;18.774;2023-04-15T07:13:17;96294.47;;;19.75;42.91
41044;BME280;51680;49.806;18.774;2023-04-15T07:16:20;96293.72;;;19.07;41.16
41044;BME280;51680;49.806;18.774;2023-04-15T07:19:22;96293.59;;;19.00;42.36
41044;BME280;51680;49.806;18.774;2023-04-15T07:22:24;96305.56;;;17.72;42.33
41044;BME280;51680;49.806;18.774;2023-04-15T07:25:26;96309.88;;;17.17;44.61
41044;BME280;51680;49.806;18.774;2023-04-15T07:28:27;96313.09;;;16.63;46.65
41044;BME280;51680;49.806;18.774;2023-04-15T07:31:31;96316.69;;;16.54;47.27
41044;BME280;51680;49.806;18.774;2023-04-15T07:34:33;96306.25;;;17.34;47.38
41044;BME280;51680;49.806;18.774;2023-04-15T07:37:34;96306.22;;;18.29;46.02
41044;BME280;51680;49.806;18.774;2023-04-15T07:40:36;96306.03;;;18.69;44.83
41044;BME280;51680;49.806;18.774;2023-04-15T07:43:38;96310.53;;;17.51;46.18
41044;BME280;51680;49.806;18.774;2023-04-15T07:46:41;96325.13;;;16.24;47.74
41044;BME280;51680;49.806;18.774;2023-04-15T07:49:43;96324.47;;;15.89;48.51
41044;BME280;51680;49.806;18.774;2023-04-15T07:52:45;96320.97;;;16.55;48.00
41044;BME280;51680;49.806;18.774;2023-04-15T07:56:07;96313.81;;;17.21;47.49
41044;BME280;51680;49.806;18.774;2023-04-15T07:59:08;96315.50;;;17.54;45.61
41044;BME280;51680;49.806;18.774;2023-04-15T08:02:12;96307.69;;;17.77;45.83
41044;BME280;51680;49.806;18.774;2023-04-15T08:05:14;96307.81;;;18.77;44.24
41044;BME280;51680;49.806;18.774;2023-04-15T08:08:16;96302.66;;;19.51;42.65
41044;BME280;51680;49.806;18.774;2023-04-15T08:11:18;96304.53;;;19.94;42.49
41044;BME280;51680;49.806;18.774;2023-04-15T08:14:20;96312.59;;;19.26;42.15
41044;BME280;51680;49.806;18.774;2023-04-15T08:17:23;96313.06;;;18.07;41.78
41044;BME280;51680;49.806;18.774;2023-04-15T08:20:25;96311.19;;;18.24;42.39
41044;BME280;51680;49.806;18.774;2023-04-15T08:23:27;96313.91;;;18.47;42.09
41044;BME280;51680;49.806;18.774;2023-04-15T08:26:28;96299.13;;;18.91;41.47
41044;BME280;51680;49.806;18.774;2023-04-15T08:29:30;96305.63;;;19.48;39.90
41044;BME280;51680;49.806;18.774;2023-04-15T08:32:33;96311.63;;;18.44;40.94
41044;BME280;51680;49.806;18.774;2023-04-15T08:35:35;96294.16;;;18.96;41.57
41044;BME280;51680;49.806;18.774;2023-04-15T08:38:37;96303.59;;;18.68;39.68
41044;BME280;51680;49.806;18.774;2023-04-15T08:41:40;96302.56;;;18.30;41.46
41044;BME280;51680;49.806;18.774;2023-04-15T08:44:46;96304.34;;;18.46;42.36
41044;BME280;51680;49.806;18.774;2023-04-15T08:47:53;96302.91;;;17.80;37.92
41044;BME280;51680;49.806;18.774;2023-04-15T08:50:57;96305.06;;;16.23;41.60
41044;BME280;51680;49.806;18.774;2023-04-15T08:53:59;96315.78;;;15.96;42.91
41044;BME280;51680;49.806;18.774;2023-04-15T08:57:02;96318.59;;;16.36;43.34
41044;BME280;51680;49.806;18.774;2023-04-15T09:00:05;96310.13;;;16.17;43.32
41044;BME280;51680;49.806;18.774;2023-04-15T09:03:10;96311.50;;;15.95;42.71
41044;BME280;51680;49.806;18.774;2023-04-15T09:06:12;96322.44;;;16.08;45.80
41044;BME280;51680;49.806;18.774;2023-04-15T09:09:14;96321.66;;;16.57;46.82
41044;BME280;51680;49.806;18.774;2023-04-15T09:12:16;96318.78;;;17.16;46.48
41044;BME280;51680;49.806;18.774;2023-04-15T09:15:18;96315.97;;;17.66;45.97
41044;BME280;51680;49.806;18.774;2023-04-15T09:18:28;96319.66;;;18.03;45.30
41044;BME280;51680;49.806;18.774;2023-04-15T09:21:30;96319.81;;;18.18;45.83
41044;BME280;51680;49.806;18.774;2023-04-15T09:24:36;96322.59;;;18.16;45.17
41044;BME280;51680;49.806;18.774;2023-04-15T09:27:47;96318.31;;;18.15;40.90
41044;BME280;51680;49.806;18.774;2023-04-15T09:30:50;96322.22;;;18.27;45.06
41044;BME280;51680;49.806;18.774;2023-04-15T09:33:56;96320.97;;;18.54;44.40
41044;BME280;51680;49.806;18.774;2023-04-15T09:36:58;96326.81;;;18.80;44.37
41044;BME280;51680;49.806;18.774;2023-04-15T09:40:00;96321.72;;;18.40;43.18
41044;BME280;51680;49.806;18.774;2023-04-15T09:43:02;96333.63;;;17.25;44.60
41044;BME280;51680;49.806;18.774;2023-04-15T09:46:04;96318.66;;;16.44;42.52
41044;BME280;51680;49.806;18.774;2023-04-15T09:49:08;96330.88;;;16.53;45.39
41044;BME280;51680;49.806;18.774;2023-04-15T09:52:13;96329.78;;;16.80;44.00
41044;BME280;51680;49.806;18.774;2023-04-15T09:55:17;96324.72;;;17.10;42.37
41044;BME280;51680;49.806;18.774;2023-04-15T09:58:19;96316.13;;;16.92;39.19
41044;BME280;51680;49.806;18.774;2023-04-15T10:01:21;96331.94;;;17.08;44.08
41044;BME280;51680;49.806;18.774;2023-04-15T10:04:26;96336.75;;;17.21;44.93
41044;BME280;51680;49.806;18.774;2023-04-15T10:07:29;96330.00;;;17.50;45.53
41044;BME280;51680;49.806;18.774;2023-04-15T10:10:31;96340.53;;;17.82;46.00
41044;BME280;51680;49.806;18.774;2023-04-15T10:13:34;96342.47;;;18.04;44.74
41044;BME280;51680;49.806;18.774;2023-04-15T10:16:40;96333.97;;;18.33;44.41
41044;BME280;51680;49.806;18.774;2023-04-15T10:19:52;96336.94;;;18.69;44.33
41044;BME280;51680;49.806;18.774;2023-04-15T10:22:55;96336.97;;;18.91;43.65
41044;BME280;51680;49.806;18.774;2023-04-15T10:25:57;96339.91;;;18.96;43.69
41044;BME280;51680;49.806;18.774;2023-04-15T10:29:00;96336.84;;;18.85;43.68
41044;BME280;51680;49.806;18.774;2023-04-15T10:32:03;96334.78;;;18.72;43.19
41044;BME280;51680;49.806;18.774;2023-04-15T10:35:07;96334.50;;;18.12;42.59
41044;BME280;51680;49.806;18.774;2023-04-15T10:38:32;96332.09;;;17.87;41.29
41044;BME280;51680;49.806;18.774;2023-04-15T10:41:34;96326.22;;;17.53;43.07
41044;BME280;51680;49.806;18.774;2023-04-15T10:44:37;96320.78;;;17.62;43.63
41044;BME280;51680;49.806;18.774;2023-04-15T10:48:01;96329.00;;;17.67;42.45
41044;BME280;51680;49.806;18.774;2023-04-15T10:51:04;96332.44;;;17.76;44.16
41044;BME280;51680;49.806;18.774;2023-04-15T10:54:08;96322.53;;;17.86;42.43
41044;BME280;51680;49.806;18.774;2023-04-15T10:57:15;96333.09;;;17.86;43.93
41044;BME280;51680;49.806;18.774;2023-04-15T11:00:18;96336.19;;;18.05;43.60
41044;BME280;51680;49.806;18.774;2023-04-15T11:03:36;96331.47;;;18.23;42.41
41044;BME280;51680;49.806;18.774;2023-04-15T11:06:44;96328.34;;;18.36;42.41
41044;BME280;51680;49.806;18.774;2023-04-15T11:09:45;96332.00;;;18.27;42.88
41044;BME280;51680;49.806;18.774;2023-04-15T11:12:50;96325.56;;;17.51;39.94
41044;BME280;51680;49.806;18.774;2023-04-15T11:15:55;96339.03;;;17.00;41.72
41044;BME280;51680;49.806;18.774;2023-04-15T11:18:58;96332.63;;;16.94;41.84
41044;BME280;51680;49.806;18.774;2023-04-15T11:22:07;96338.47;;;16.64;40.01
41044;BME280;51680;49.806;18.774;2023-04-15T11:25:08;96336.03;;;16.79;41.94
41044;BME280;51680;49.806;18.774;2023-04-15T11:28:11;96337.22;;;16.92;41.17
41044;BME280;51680;49.806;18.774;2023-04-15T11:31:15;96339.50;;;16.87;41.39
41044;BME280;51680;49.806;18.774;2023-04-15T11:34:21;96333.28;;;17.20;41.75
41044;BME280;51680;49.806;18.774;2023-04-15T11:37:28;96325.06;;;17.23;40.41
41044;BME280;51680;49.806;18.774;2023-04-15T11:40:31;96331.94;;;17.32;40.64
41044;BME280;51680;49.806;18.774;2023-04-15T11:43:34;96333.75;;;17.00;39.81
41044;BME280;51680;49.806;18.774;2023-04-15T11:46:36;96326.59;;;16.60;39.90
41044;BME280;51680;49.806;18.774;2023-04-15T11:49:38;96324.66;;;16.78;40.28
41044;BME280;51680;49.806;18.774;2023-04-15T11:52:51;96323.38;;;17.06;37.50
41044;BME280;51680;49.806;18.774;2023-04-15T11:55:53;96326.53;;;17.34;39.56
41044;BME280;51680;49.806;18.774;2023-04-15T11:58:56;96330.66;;;17.04;38.85
41044;BME280;51680;49.806;18.774;2023-04-15T12:01:58;96342.78;;;16.89;39.27
41044;BME280;51680;49.806;18.774;2023-04-15T12:05:04;96344.38;;;16.58;38.09
41044;BME280;51680;49.806;18.774;2023-04-15T12:08:07;96339.47;;;16.79;39.94
41044;BME280;51680;49.806;18.774;2023-04-15T12:11:09;96330.63;;;17.12;39.74
41044;BME280;51680;49.806;18.774;2023-04-15T12:14:18;96333.13;;;17.38;39.62
41044;BME280;51680;49.806;18.774;2023-04-15T12:17:22;96334.25;;;17.83;40.25
41044;BME280;51680;49.806;18.774;2023-04-15T12:20:24;96326.09;;;18.17;39.42
41044;BME280;51680;49.806;18.774;2023-04-15T12:23:28;96325.50;;;18.46;38.29
41044;BME280;51680;49.806;18.774;2023-04-15T12:26:32;96328.97;;;18.77;38.86
41044;BME280;51680;49.806;18.774;2023-04-15T12:29:38;96333.16;;;18.94;38.82
41044;BME280;51680;49.806;18.774;2023-04-15T12:32:59;96327.91;;;18.86;38.10
41044;BME280;51680;49.806;18.774;2023-04-15T12:36:02;96333.19;;;18.86;38.75
41044;BME280;51680;49.806;18.774;2023-04-15T12:39:06;96330.69;;;18.92;37.52
41044;BME280;51680;49.806;18.774;2023-04-15T12:42:08;96326.09;;;18.56;37.31
41044;BME280;51680;49.806;18.774;2023-04-15T12:45:10;96331.38;;;18.56;39.32
41044;BME280;51680;49.806;18.774;2023-04-15T12:48:12;96326.97;;;18.79;39.02
41044;BME280;51680;49.806;18.774;2023-04-15T12:51:14;96331.97;;;18.74;38.74
41044;BME280;51680;49.806;18.774;2023-04-15T12:54:17;96327.84;;;18.71;37.85
41044;BME280;51680;49.806;18.774;2023-04-15T12:57:19;96340.84;;;18.81;38.39
41044;BME280;51680;49.806;18.774;2023-04-15T13:00:21;96336.13;;;18.91;38.13
41044;BME280;51680;49.806;18.774;2023-04-15T13:03:23;96339.16;;;18.88;38.23
41044;BME280;51680;49.806;18.774;2023-04-15T13:06:25;96340.47;;;18.92;38.38
41044;BME280;51680;49.806;18.774;2023-04-15T13:09:29;96339.97;;;18.88;39.14
41044;BME280;51680;49.806;18.774;2023-04-15T13:12:32;96344.78;;;18.85;39.46
41044;BME280;51680;49.806;18.774;2023-04-15T13:15:35;96349.03;;;18.63;36.92
41044;BME280;51680;49.806;18.774;2023-04-15T13:18:37;96348.16;;;18.71;39.82
41044;BME280;51680;49.806;18.774;2023-04-15T13:21:39;96356.59;;;18.74;40.04
41044;BME280;51680;49.806;18.774;2023-04-15T13:24:42;96352.28;;;18.73;38.99
41044;BME280;51680;49.806;18.774;2023-04-15T13:27:45;96357.78;;;18.72;38.93
41044;BME280;51680;49.806;18.774;2023-04-15T13:30:47;96360.41;;;18.72;39.21
41044;BME280;51680;49.806;18.774;2023-04-15T13:33:49;96366.66;;;18.71;39.51
41044;BME280;51680;49.806;18.774;2023-04-15T13:36:51;96369.47;;;18.69;39.75
41044;BME280;51680;49.806;18.774;2023-04-15T13:39:54;96376.78;;;18.67;39.48
41044;BME280;51680;49.806;18.774;2023-04-15T13:42:56;96375.84;;;18.60;39.71
41044;BME280;51680;49.806;18.774;2023-04-15T13:45:58;96373.84;;;18.54;39.89
41044;BME280;51680;49.806;18.774;2023-04-15T13:49:00;96381.97;;;18.53;39.90
41044;BME280;51680;49.806;18.774;2023-04-15T13:52:01;96388.94;;;18.38;40.67
41044;BME280;51680;49.806;18.774;2023-04-15T13:55:06;96390.78;;;18.21;41.01
41044;BME280;51680;49.806;18.774;2023-04-15T13:58:07;96399.41;;;18.07;41.96
41044;BME280;51680;49.806;18.774;2023-04-15T14:01:09;96412.16;;;17.71;41.70
41044;BME280;51680;49.806;18.774;2023-04-15T14:04:12;96414.81;;;17.63;42.95
41044;BME280;51680;49.806;18.774;2023-04-15T14:07:14;96416.72;;;17.29;43.57
41044;BME280;51680;49.806;18.774;2023-04-15T14:10:17;96432.44;;;16.81;45.01
41044;BME280;51680;49.806;18.774;2023-04-15T14:13:19;96432.91;;;16.43;46.43
41044;BME280;51680;49.806;18.774;2023-04-15T14:16:20;96434.59;;;16.27;47.46
41044;BME280;51680;49.806;18.774;2023-04-15T14:19:22;96444.13;;;15.94;48.72
41044;BME280;51680;49.806;18.774;2023-04-15T14:22:24;96441.31;;;15.70;51.50
41044;BME280;51680;49.806;18.774;2023-04-15T14:25:27;96441.09;;;15.46;54.28
41044;BME280;51680;49.806;18.774;2023-04-15T14:28:29;96450.66;;;15.20;56.55
41044;BME280;51680;49.806;18.774;2023-04-15T14:31:31;96449.63;;;15.13;56.84
41044;BME280;51680;49.806;18.774;2023-04-15T14:34:33;96455.81;;;15.12;57.14
41044;BME280;51680;49.806;18.774;2023-04-15T14:37:35;96458.47;;;15.12;57.29
41044;BME280;51680;49.806;18.774;2023-04-15T14:40:39;96461.53;;;14.90;58.25
41044;BME280;51680;49.806;18.774;2023-04-15T14:43:41;96474.38;;;14.93;58.21
41044;BME280;51680;49.806;18.774;2023-04-15T14:46:43;96477.00;;;14.93;58.54
41044;BME280;51680;49.806;18.774;2023-04-15T14:49:44;96477.88;;;14.84;58.14
41044;BME280;51680;49.806;18.774;2023-04-15T14:52:46;96482.41;;;14.92;57.63
41044;BME280;51680;49.806;18.774;2023-04-15T14:55:49;96478.78;;;14.93;57.76
41044;BME280;51680;49.806;18.774;2023-04-15T14:58:51;96481.44;;;15.10;57.54
41044;BME280;51680;49.806;18.774;2023-04-15T15:01:53;96495.59;;;15.27;56.63
41044;BME280;51680;49.806;18.774;2023-04-15T15:04:56;96497.28;;;15.45;56.74
41044;BME280;51680;49.806;18.774;2023-04-15T15:07:58;96500.47;;;15.66;56.54
41044;BME280;51680;49.806;18.774;2023-04-15T15:11:01;96501.72;;;15.80;56.28
41044;BME280;51680;49.806;18.774;2023-04-15T15:14:03;96511.66;;;15.86;55.80
41044;BME280;51680;49.806;18.774;2023-04-15T15:17:05;96503.97;;;15.92;56.18
41044;BME280;51680;49.806;18.774;2023-04-15T15:20:07;96504.72;;;16.02;55.93
41044;BME280;51680;49.806;18.774;2023-04-15T15:23:09;96506.69;;;16.00;55.09
41044;BME280;51680;49.806;18.774;2023-04-15T15:26:12;96503.91;;;16.02;56.56
41044;BME280;51680;49.806;18.774;2023-04-15T15:29:14;96507.72;;;16.07;55.28
41044;BME280;51680;49.806;18.774;2023-04-15T15:32:16;96507.13;;;16.13;55.88
41044;BME280;51680;49.806;18.774;2023-04-15T15:35:18;96514.66;;;16.08;56.42
41044;BME280;51680;49.806;18.774;2023-04-15T15:38:21;96519.53;;;16.03;55.08
41044;BME280;51680;49.806;18.774;2023-04-15T15:41:25;96512.84;;;15.91;55.47
41044;BME280;51680;49.806;18.774;2023-04-15T15:44:26;96526.69;;;15.76;56.92
41044;BME280;51680;49.806;18.774;2023-04-15T15:47:28;96535.00;;;14.82;62.24
41044;BME280;51680;49.806;18.774;2023-04-15T15:50:30;96532.66;;;14.33;62.97
41044;BME280;51680;49.806;18.774;2023-04-15T15:53:32;96524.25;;;14.30;61.21
41044;BME280;51680;49.806;18.774;2023-04-15T15:56:36;96528.66;;;14.29;61.12
41044;BME280;51680;49.806;18.774;2023-04-15T15:59:39;96525.63;;;14.34;60.17